sensor_id;sensor_type;location;lat;lon;timestamp;P1;durP1;ratioP1;P2;durP2;ratioP2
8161;SDS011;16778;48.154;15.094;2023-03-14T00:01:12;8.07;;;2.50;;
8161;SDS011;16778;48.154;15.094;2023-03-14T00:03:41;2.60;;;2.00;;
8161;SDS011;16778;48.154;15.094;2023-03-14T00:06:08;6.00;;;2.80;;
8161;SDS011;16778;48.154;15.094;2023-03-14T00:08:35;3.90;;;2.60;;
8161;SDS011;16778;48.154;15.094;2023-03-14T00:11:13;6.63;;;2.67;;
8161;SDS011;16778;48.154;15.094;2023-03-14T00:13:40;5.63;;;2.30;;
8161;SDS011;16778;48.154;15.094;2023-03-14T00:16:07;4.00;;;2.50;;
8161;SDS011;16778;48.154;15.094;2023-03-14T00:18:34;3.77;;;2.23;;
8161;SDS011;16778;48.154;15.094;2023-03-14T00:21:00;4.00;;;2.37;;
8161;SDS011;16778;48.154;15.094;2023-03-14T00:23:27;6.10;;;3.07;;
8161;SDS011;16778;48.154;15.094;2023-03-14T00:25:56;5.17;;;2.67;;
8161;SDS011;16778;48.154;15.094;2023-03-14T00:28:27;4.83;;;2.70;;
8161;SDS011;16778;48.154;15.094;2023-03-14T00:30:53;4.27;;;2.47;;
8161;SDS011;16778;48.154;15.094;2023-03-14T00:33:19;4.73;;;2.23;;
8161;SDS011;16778;48.154;15.094;2023-03-14T00:35:55;4.87;;;2.60;;
8161;SDS011;16778;48.154;15.094;2023-03-14T00:38:22;4.90;;;2.80;;
8161;SDS011;16778;48.154;15.094;2023-03-14T00:40:49;4.40;;;2.73;;
8161;SDS011;16778;48.154;15.094;2023-03-14T00:43:15;5.63;;;2.57;;
8161;SDS011;16778;48.154;15.094;2023-03-14T00:45:41;5.60;;;3.10;;
8161;SDS011;16778;48.154;15.094;2023-03-14T00:48:06;4.97;;;2.40;;
8161;SDS011;16778;48.154;15.094;2023-03-14T00:50:32;5.40;;;2.80;;
8161;SDS011;16778;48.154;15.094;2023-03-14T00:52:58;4.87;;;2.87;;
8161;SDS011;16778;48.154;15.094;2023-03-14T00:55:23;4.07;;;2.60;;
8161;SDS011;16778;48.154;15.094;2023-03-14T00:57:49;4.93;;;2.97;;
8161;SDS011;16778;48.154;15.094;2023-03-14T01:00:15;4.63;;;3.10;;
8161;SDS011;16778;48.154;15.094;2023-03-14T01:02:41;3.83;;;2.93;;
8161;SDS011;16778;48.154;15.094;2023-03-14T01:05:07;4.20;;;2.70;;
8161;SDS011;16778;48.154;15.094;2023-03-14T01:07:35;5.90;;;2.40;;
8161;SDS011;16778;48.154;15.094;2023-03-14T01:10:02;4.93;;;2.90;;
8161;SDS011;16778;48.154;15.094;2023-03-14T01:12:28;3.50;;;2.60;;
8161;SDS011;16778;48.154;15.094;2023-03-14T01:14:53;6.03;;;2.93;;
8161;SDS011;16778;48.154;15.094;2023-03-14T01:17:19;5.30;;;2.80;;
8161;SDS011;16778;48.154;15.094;2023-03-14T01:19:45;4.20;;;2.67;;
8161;SDS011;16778;48.154;15.094;2023-03-14T01:22:10;6.63;;;2.87;;
8161;SDS011;16778;48.154;15.094;2023-03-14T01:24:36;3.30;;;2.47;;
8161;SDS011;16778;48.154;15.094;2023-03-14T01:27:02;6.37;;;2.13;;
8161;SDS011;16778;48.154;15.094;2023-03-14T01:29:28;5.83;;;2.50;;
8161;SDS011;16778;48.154;15.094;2023-03-14T01:31:53;4.33;;;2.57;;
8161;SDS011;16778;48.154;15.094;2023-03-14T01:34:19;4.63;;;2.50;;
8161;SDS011;16778;48.154;15.094;2023-03-14T01:36:45;4.67;;;2.70;;
8161;SDS011;16778;48.154;15.094;2023-03-14T01:39:10;6.77;;;3.03;;
8161;SDS011;16778;48.154;15.094;2023-03-14T01:41:37;4.27;;;2.23;;
8161;SDS011;16778;48.154;15.094;2023-03-14T01:44:04;5.10;;;2.00;;
8161;SDS011;16778;48.154;15.094;2023-03-14T01:46:37;3.70;;;2.00;;
8161;SDS011;16778;48.154;15.094;2023-03-14T01:51:49;4.00;;;2.67;;
8161;SDS011;16778;48.154;15.094;2023-03-14T01:54:33;7.00;;;3.23;;
8161;SDS011;16778;48.154;15.094;2023-03-14T01:57:19;6.07;;;2.83;;
8161;SDS011;16778;48.154;15.094;2023-03-14T01:59:49;4.17;;;2.73;;
8161;SDS011;16778;48.154;15.094;2023-03-14T02:02:18;4.83;;;2.87;;
8161;SDS011;16778;48.154;15.094;2023-03-14T02:04:43;4.73;;;3.07;;
8161;SDS011;16778;48.154;15.094;2023-03-14T02:07:14;4.60;;;3.07;;
8161;SDS011;16778;48.154;15.094;2023-03-14T02:09:48;4.17;;;2.77;;
8161;SDS011;16778;48.154;15.094;2023-03-14T02:12:15;4.50;;;2.73;;
8161;SDS011;16778;48.154;15.094;2023-03-14T02:14:41;5.77;;;2.67;;
8161;SDS011;16778;48.154;15.094;2023-03-14T02:17:12;5.67;;;2.77;;
8161;SDS011;16778;48.154;15.094;2023-03-14T02:22:46;3.23;;;2.60;;
8161;SDS011;16778;48.154;15.094;2023-03-14T02:27:56;3.50;;;2.23;;
8161;SDS011;16778;48.154;15.094;2023-03-14T02:30:24;5.33;;;2.53;;
8161;SDS011;16778;48.154;15.094;2023-03-14T02:32:55;5.17;;;2.77;;
8161;SDS011;16778;48.154;15.094;2023-03-14T02:35:25;6.47;;;2.67;;
8161;SDS011;16778;48.154;15.094;2023-03-14T02:37:55;4.43;;;2.20;;
8161;SDS011;16778;48.154;15.094;2023-03-14T02:40:28;3.67;;;2.70;;
8161;SDS011;16778;48.154;15.094;2023-03-14T02:42:53;3.67;;;2.43;;
8161;SDS011;16778;48.154;15.094;2023-03-14T02:45:26;4.90;;;2.90;;
8161;SDS011;16778;48.154;15.094;2023-03-14T02:48:02;4.60;;;2.77;;
8161;SDS011;16778;48.154;15.094;2023-03-14T02:50:31;5.13;;;2.50;;
8161;SDS011;16778;48.154;15.094;2023-03-14T02:52:58;4.47;;;2.67;;
8161;SDS011;16778;48.154;15.094;2023-03-14T02:55:24;4.80;;;2.50;;
8161;SDS011;16778;48.154;15.094;2023-03-14T02:57:52;5.77;;;2.60;;
8161;SDS011;16778;48.154;15.094;2023-03-14T03:00:18;3.53;;;2.60;;
8161;SDS011;16778;48.154;15.094;2023-03-14T03:02:44;4.23;;;2.13;;
8161;SDS011;16778;48.154;15.094;2023-03-14T03:05:10;4.80;;;2.67;;
8161;SDS011;16778;48.154;15.094;2023-03-14T03:07:36;3.73;;;2.23;;
8161;SDS011;16778;48.154;15.094;2023-03-14T03:10:02;8.40;;;2.63;;
8161;SDS011;16778;48.154;15.094;2023-03-14T03:12:28;6.23;;;2.70;;
8161;SDS011;16778;48.154;15.094;2023-03-14T03:14:53;2.90;;;2.43;;
8161;SDS011;16778;48.154;15.094;2023-03-14T03:17:19;6.63;;;2.57;;
8161;SDS011;16778;48.154;15.094;2023-03-14T03:19:44;4.47;;;2.40;;
8161;SDS011;16778;48.154;15.094;2023-03-14T03:22:10;5.30;;;2.70;;
8161;SDS011;16778;48.154;15.094;2023-03-14T03:24:36;8.83;;;2.70;;
8161;SDS011;16778;48.154;15.094;2023-03-14T03:27:02;4.23;;;2.77;;
8161;SDS011;16778;48.154;15.094;2023-03-14T03:29:27;4.30;;;2.60;;
8161;SDS011;16778;48.154;15.094;2023-03-14T03:31:53;6.17;;;3.00;;
8161;SDS011;16778;48.154;15.094;2023-03-14T03:34:18;5.80;;;2.17;;
8161;SDS011;16778;48.154;15.094;2023-03-14T03:36:44;2.90;;;1.90;;
8161;SDS011;16778;48.154;15.094;2023-03-14T03:39:10;3.50;;;1.87;;
8161;SDS011;16778;48.154;15.094;2023-03-14T03:41:35;7.13;;;2.17;;
8161;SDS011;16778;48.154;15.094;2023-03-14T03:44:01;4.07;;;2.40;;
8161;SDS011;16778;48.154;15.094;2023-03-14T03:46:27;4.00;;;2.83;;
8161;SDS011;16778;48.154;15.094;2023-03-14T03:48:56;3.83;;;2.63;;
8161;SDS011;16778;48.154;15.094;2023-03-14T03:51:23;3.30;;;2.10;;
8161;SDS011;16778;48.154;15.094;2023-03-14T03:53:48;5.60;;;2.93;;
8161;SDS011;16778;48.154;15.094;2023-03-14T03:56:14;5.07;;;2.77;;
8161;SDS011;16778;48.154;15.094;2023-03-14T03:58:40;5.20;;;2.57;;
8161;SDS011;16778;48.154;15.094;2023-03-14T04:01:07;3.50;;;2.50;;
8161;SDS011;16778;48.154;15.094;2023-03-14T04:03:33;4.27;;;2.63;;
8161;SDS011;16778;48.154;15.094;2023-03-14T04:06:03;3.67;;;2.13;;
8161;SDS011;16778;48.154;15.094;2023-03-14T04:08:35;4.37;;;2.57;;
8161;SDS011;16778;48.154;15.094;2023-03-14T04:11:01;6.30;;;2.70;;
8161;SDS011;16778;48.154;15.094;2023-03-14T04:13:28;5.53;;;3.37;;
8161;SDS011;16778;48.154;15.094;2023-03-14T04:15:54;4.47;;;2.47;;
8161;SDS011;16778;48.154;15.094;2023-03-14T04:18:20;4.17;;;2.70;;
8161;SDS011;16778;48.154;15.094;2023-03-14T04:20:56;5.00;;;2.80;;
8161;SDS011;16778;48.154;15.094;2023-03-14T04:23:23;5.20;;;2.83;;
8161;SDS011;16778;48.154;15.094;2023-03-14T04:25:49;3.53;;;2.40;;
8161;SDS011;16778;48.154;15.094;2023-03-14T04:28:15;5.10;;;2.53;;
8161;SDS011;16778;48.154;15.094;2023-03-14T04:30:41;4.67;;;2.30;;
8161;SDS011;16778;48.154;15.094;2023-03-14T04:33:07;4.10;;;2.30;;
8161;SDS011;16778;48.154;15.094;2023-03-14T04:35:33;11.30;;;2.67;;
8161;SDS011;16778;48.154;15.094;2023-03-14T04:37:58;5.27;;;2.70;;
8161;SDS011;16778;48.154;15.094;2023-03-14T04:40:24;6.63;;;2.17;;
8161;SDS011;16778;48.154;15.094;2023-03-14T04:42:50;5.17;;;2.50;;
8161;SDS011;16778;48.154;15.094;2023-03-14T04:45:16;6.17;;;2.67;;
8161;SDS011;16778;48.154;15.094;2023-03-14T04:47:41;4.33;;;2.40;;
8161;SDS011;16778;48.154;15.094;2023-03-14T04:50:08;6.87;;;3.00;;
8161;SDS011;16778;48.154;15.094;2023-03-14T04:52:34;3.70;;;2.70;;
8161;SDS011;16778;48.154;15.094;2023-03-14T04:54:59;4.80;;;2.60;;
8161;SDS011;16778;48.154;15.094;2023-03-14T04:57:25;5.07;;;2.53;;
8161;SDS011;16778;48.154;15.094;2023-03-14T04:59:51;5.60;;;2.77;;
8161;SDS011;16778;48.154;15.094;2023-03-14T05:02:16;6.03;;;2.70;;
8161;SDS011;16778;48.154;15.094;2023-03-14T05:04:42;4.23;;;2.80;;
8161;SDS011;16778;48.154;15.094;2023-03-14T05:07:07;6.87;;;2.70;;
8161;SDS011;16778;48.154;15.094;2023-03-14T05:09:33;4.20;;;2.70;;
8161;SDS011;16778;48.154;15.094;2023-03-14T05:11:59;6.03;;;2.70;;
8161;SDS011;16778;48.154;15.094;2023-03-14T05:14:24;3.33;;;2.30;;
8161;SDS011;16778;48.154;15.094;2023-03-14T05:16:50;4.50;;;2.90;;
8161;SDS011;16778;48.154;15.094;2023-03-14T05:19:15;4.07;;;2.50;;
8161;SDS011;16778;48.154;15.094;2023-03-14T05:21:41;4.23;;;2.27;;
8161;SDS011;16778;48.154;15.094;2023-03-14T05:24:07;5.47;;;2.67;;
8161;SDS011;16778;48.154;15.094;2023-03-14T05:26:32;3.50;;;2.47;;
8161;SDS011;16778;48.154;15.094;2023-03-14T05:28:58;3.97;;;2.47;;
8161;SDS011;16778;48.154;15.094;2023-03-14T05:31:23;3.87;;;2.37;;
8161;SDS011;16778;48.154;15.094;2023-03-14T05:33:49;4.10;;;2.50;;
8161;SDS011;16778;48.154;15.094;2023-03-14T05:36:15;3.70;;;2.60;;
8161;SDS011;16778;48.154;15.094;2023-03-14T05:38:40;5.33;;;2.93;;
8161;SDS011;16778;48.154;15.094;2023-03-14T05:41:06;3.37;;;2.20;;
8161;SDS011;16778;48.154;15.094;2023-03-14T05:43:32;5.40;;;2.60;;
8161;SDS011;16778;48.154;15.094;2023-03-14T05:45:57;3.43;;;2.43;;
8161;SDS011;16778;48.154;15.094;2023-03-14T05:48:23;6.47;;;2.30;;
8161;SDS011;16778;48.154;15.094;2023-03-14T05:50:53;4.27;;;2.67;;
8161;SDS011;16778;48.154;15.094;2023-03-14T05:53:20;4.23;;;2.67;;
8161;SDS011;16778;48.154;15.094;2023-03-14T05:55:46;5.73;;;2.63;;
8161;SDS011;16778;48.154;15.094;2023-03-14T05:58:11;3.73;;;2.80;;
8161;SDS011;16778;48.154;15.094;2023-03-14T06:00:37;3.80;;;2.60;;
8161;SDS011;16778;48.154;15.094;2023-03-14T06:03:02;5.73;;;3.00;;
8161;SDS011;16778;48.154;15.094;2023-03-14T06:05:28;9.70;;;2.77;;
8161;SDS011;16778;48.154;15.094;2023-03-14T06:07:54;4.43;;;2.70;;
8161;SDS011;16778;48.154;15.094;2023-03-14T06:10:19;6.30;;;3.13;;
8161;SDS011;16778;48.154;15.094;2023-03-14T06:12:45;4.47;;;2.83;;
8161;SDS011;16778;48.154;15.094;2023-03-14T06:15:10;5.87;;;2.93;;
8161;SDS011;16778;48.154;15.094;2023-03-14T06:17:36;4.73;;;3.33;;
8161;SDS011;16778;48.154;15.094;2023-03-14T06:20:02;6.20;;;3.53;;
8161;SDS011;16778;48.154;15.094;2023-03-14T06:22:28;7.93;;;2.83;;
8161;SDS011;16778;48.154;15.094;2023-03-14T06:24:53;6.90;;;3.30;;
8161;SDS011;16778;48.154;15.094;2023-03-14T06:27:19;3.83;;;2.90;;
8161;SDS011;16778;48.154;15.094;2023-03-14T06:29:44;5.27;;;2.90;;
8161;SDS011;16778;48.154;15.094;2023-03-14T06:32:10;4.43;;;2.93;;
8161;SDS011;16778;48.154;15.094;2023-03-14T06:34:36;4.90;;;2.70;;
8161;SDS011;16778;48.154;15.094;2023-03-14T06:37:01;5.10;;;2.60;;
8161;SDS011;16778;48.154;15.094;2023-03-14T06:39:27;4.97;;;2.70;;
8161;SDS011;16778;48.154;15.094;2023-03-14T06:41:52;5.10;;;2.90;;
8161;SDS011;16778;48.154;15.094;2023-03-14T06:44:18;6.50;;;3.27;;
8161;SDS011;16778;48.154;15.094;2023-03-14T06:46:44;5.97;;;3.40;;
8161;SDS011;16778;48.154;15.094;2023-03-14T06:49:09;3.77;;;2.80;;
8161;SDS011;16778;48.154;15.094;2023-03-14T06:51:35;7.53;;;2.73;;
8161;SDS011;16778;48.154;15.094;2023-03-14T06:54:01;3.33;;;2.20;;
8161;SDS011;16778;48.154;15.094;2023-03-14T06:56:26;5.13;;;2.50;;
8161;SDS011;16778;48.154;15.094;2023-03-14T06:58:52;3.40;;;2.47;;
8161;SDS011;16778;48.154;15.094;2023-03-14T07:01:20;4.67;;;2.50;;
8161;SDS011;16778;48.154;15.094;2023-03-14T07:03:49;4.27;;;2.97;;
8161;SDS011;16778;48.154;15.094;2023-03-14T07:06:15;4.37;;;2.90;;
8161;SDS011;16778;48.154;15.094;2023-03-14T07:08:40;3.00;;;2.23;;
8161;SDS011;16778;48.154;15.094;2023-03-14T07:11:07;4.23;;;2.20;;
8161;SDS011;16778;48.154;15.094;2023-03-14T07:13:32;2.73;;;2.37;;
8161;SDS011;16778;48.154;15.094;2023-03-14T07:15:58;3.23;;;2.70;;
8161;SDS011;16778;48.154;15.094;2023-03-14T07:18:24;6.33;;;2.60;;
8161;SDS011;16778;48.154;15.094;2023-03-14T07:20:49;2.60;;;1.87;;
8161;SDS011;16778;48.154;15.094;2023-03-14T07:23:15;3.70;;;2.33;;
8161;SDS011;16778;48.154;15.094;2023-03-14T07:25:40;4.33;;;2.10;;
8161;SDS011;16778;48.154;15.094;2023-03-14T07:28:06;3.47;;;2.23;;
8161;SDS011;16778;48.154;15.094;2023-03-14T07:30:32;3.77;;;2.13;;
8161;SDS011;16778;48.154;15.094;2023-03-14T07:32:57;2.80;;;2.03;;
8161;SDS011;16778;48.154;15.094;2023-03-14T07:35:23;6.53;;;2.27;;
8161;SDS011;16778;48.154;15.094;2023-03-14T07:37:48;2.93;;;2.13;;
8161;SDS011;16778;48.154;15.094;2023-03-14T07:40:14;4.50;;;2.80;;
8161;SDS011;16778;48.154;15.094;2023-03-14T07:42:41;4.63;;;3.03;;
8161;SDS011;16778;48.154;15.094;2023-03-14T07:45:07;7.67;;;3.70;;
8161;SDS011;16778;48.154;15.094;2023-03-14T07:47:34;6.83;;;3.13;;
8161;SDS011;16778;48.154;15.094;2023-03-14T07:50:00;6.37;;;3.10;;
8161;SDS011;16778;48.154;15.094;2023-03-14T07:52:26;6.13;;;2.57;;
8161;SDS011;16778;48.154;15.094;2023-03-14T07:54:54;10.13;;;3.07;;
8161;SDS011;16778;48.154;15.094;2023-03-14T07:57:19;5.33;;;3.83;;
8161;SDS011;16778;48.154;15.094;2023-03-14T07:59:45;4.73;;;3.13;;
8161;SDS011;16778;48.154;15.094;2023-03-14T08:02:11;6.93;;;3.23;;
8161;SDS011;16778;48.154;15.094;2023-03-14T08:04:38;3.97;;;2.83;;
8161;SDS011;16778;48.154;15.094;2023-03-14T08:07:04;5.53;;;2.80;;
8161;SDS011;16778;48.154;15.094;2023-03-14T08:09:33;6.17;;;3.30;;
8161;SDS011;16778;48.154;15.094;2023-03-14T08:11:59;5.20;;;2.60;;
8161;SDS011;16778;48.154;15.094;2023-03-14T08:14:24;4.50;;;2.43;;
8161;SDS011;16778;48.154;15.094;2023-03-14T08:16:50;4.03;;;2.30;;
8161;SDS011;16778;48.154;15.094;2023-03-14T08:19:16;5.23;;;2.93;;
8161;SDS011;16778;48.154;15.094;2023-03-14T08:21:42;4.87;;;2.80;;
8161;SDS011;16778;48.154;15.094;2023-03-14T08:24:08;3.10;;;2.30;;
8161;SDS011;16778;48.154;15.094;2023-03-14T08:26:34;6.80;;;3.27;;
8161;SDS011;16778;48.154;15.094;2023-03-14T08:28:59;3.53;;;2.47;;
8161;SDS011;16778;48.154;15.094;2023-03-14T08:31:25;10.47;;;2.93;;
8161;SDS011;16778;48.154;15.094;2023-03-14T08:33:51;8.77;;;3.57;;
8161;SDS011;16778;48.154;15.094;2023-03-14T08:36:18;6.00;;;3.63;;
8161;SDS011;16778;48.154;15.094;2023-03-14T08:38:45;7.77;;;4.23;;
8161;SDS011;16778;48.154;15.094;2023-03-14T08:41:11;18.10;;;6.57;;
8161;SDS011;16778;48.154;15.094;2023-03-14T08:43:37;6.53;;;4.23;;
8161;SDS011;16778;48.154;15.094;2023-03-14T08:46:02;6.37;;;4.00;;
8161;SDS011;16778;48.154;15.094;2023-03-14T08:48:29;5.53;;;3.70;;
8161;SDS011;16778;48.154;15.094;2023-03-14T08:51:05;6.07;;;3.20;;
8161;SDS011;16778;48.154;15.094;2023-03-14T08:53:35;6.97;;;2.93;;
8161;SDS011;16778;48.154;15.094;2023-03-14T08:56:01;4.30;;;2.97;;
8161;SDS011;16778;48.154;15.094;2023-03-14T08:58:28;8.10;;;2.63;;
8161;SDS011;16778;48.154;15.094;2023-03-14T09:00:54;4.83;;;3.10;;
8161;SDS011;16778;48.154;15.094;2023-03-14T09:03:20;6.17;;;2.77;;
8161;SDS011;16778;48.154;15.094;2023-03-14T09:05:48;3.17;;;2.33;;
8161;SDS011;16778;48.154;15.094;2023-03-14T09:08:14;1.70;;;1.23;;
8161;SDS011;16778;48.154;15.094;2023-03-14T09:10:39;3.40;;;1.60;;
8161;SDS011;16778;48.154;15.094;2023-03-14T09:13:05;0.80;;;0.57;;
8161;SDS011;16778;48.154;15.094;2023-03-14T09:15:31;0.97;;;0.87;;
8161;SDS011;16778;48.154;15.094;2023-03-14T09:17:56;1.27;;;0.70;;
8161;SDS011;16778;48.154;15.094;2023-03-14T09:20:23;2.07;;;0.73;;
8161;SDS011;16778;48.154;15.094;2023-03-14T09:22:48;0.60;;;0.50;;
8161;SDS011;16778;48.154;15.094;2023-03-14T09:25:14;1.00;;;0.70;;
8161;SDS011;16778;48.154;15.094;2023-03-14T09:27:39;0.30;;;0.30;;
8161;SDS011;16778;48.154;15.094;2023-03-14T09:30:05;1.70;;;1.10;;
8161;SDS011;16778;48.154;15.094;2023-03-14T09:32:31;0.83;;;0.80;;
8161;SDS011;16778;48.154;15.094;2023-03-14T09:34:57;0.83;;;0.70;;
8161;SDS011;16778;48.154;15.094;2023-03-14T09:37:23;1.00;;;0.50;;
8161;SDS011;16778;48.154;15.094;2023-03-14T09:39:48;0.57;;;0.33;;
8161;SDS011;16778;48.154;15.094;2023-03-14T09:42:15;0.70;;;0.17;;
8161;SDS011;16778;48.154;15.094;2023-03-14T09:44:47;1.23;;;0.60;;
8161;SDS011;16778;48.154;15.094;2023-03-14T09:47:21;0.50;;;0.37;;
8161;SDS011;16778;48.154;15.094;2023-03-14T09:49:48;2.37;;;0.50;;
8161;SDS011;16778;48.154;15.094;2023-03-14T09:52:31;1.73;;;0.37;;
8161;SDS011;16778;48.154;15.094;2023-03-14T09:58:00;0.10;;;0.10;;
8161;SDS011;16778;48.154;15.094;2023-03-14T10:00:29;0.80;;;0.40;;
8161;SDS011;16778;48.154;15.094;2023-03-14T10:05:59;0.47;;;0.30;;
8161;SDS011;16778;48.154;15.094;2023-03-14T10:08:25;0.43;;;0.40;;
8161;SDS011;16778;48.154;15.094;2023-03-14T10:10:51;0.30;;;0.30;;
8161;SDS011;16778;48.154;15.094;2023-03-14T10:13:22;0.30;;;0.30;;
8161;SDS011;16778;48.154;15.094;2023-03-14T10:15:54;0.30;;;0.13;;
8161;SDS011;16778;48.154;15.094;2023-03-14T10:18:23;1.17;;;0.50;;
8161;SDS011;16778;48.154;15.094;2023-03-14T10:20:49;0.87;;;0.20;;
8161;SDS011;16778;48.154;15.094;2023-03-14T10:23:27;0.07;;;0.07;;
8161;SDS011;16778;48.154;15.094;2023-03-14T10:26:03;0.30;;;0.00;;
8161;SDS011;16778;48.154;15.094;2023-03-14T10:28:33;0.10;;;0.10;;
8161;SDS011;16778;48.154;15.094;2023-03-14T10:31:04;0.30;;;0.10;;
8161;SDS011;16778;48.154;15.094;2023-03-14T10:33:30;0.10;;;0.10;;
8161;SDS011;16778;48.154;15.094;2023-03-14T10:35:59;0.77;;;0.30;;
8161;SDS011;16778;48.154;15.094;2023-03-14T10:38:30;0.10;;;0.10;;
8161;SDS011;16778;48.154;15.094;2023-03-14T10:40:58;0.50;;;0.37;;
8161;SDS011;16778;48.154;15.094;2023-03-14T10:43:27;1.70;;;0.47;;
8161;SDS011;16778;48.154;15.094;2023-03-14T10:45:58;0.10;;;0.10;;
8161;SDS011;16778;48.154;15.094;2023-03-14T10:48:36;0.37;;;0.30;;
8161;SDS011;16778;48.154;15.094;2023-03-14T10:56:22;0.67;;;0.37;;
8161;SDS011;16778;48.154;15.094;2023-03-14T10:58:52;2.67;;;0.30;;
8161;SDS011;16778;48.154;15.094;2023-03-14T11:23:57;0.50;;;0.40;;
8161;SDS011;16778;48.154;15.094;2023-03-14T11:31:42;0.30;;;0.10;;
8161;SDS011;16778;48.154;15.094;2023-03-14T11:36:39;1.70;;;0.30;;
8161;SDS011;16778;48.154;15.094;2023-03-14T11:39:18;0.67;;;0.30;;
8161;SDS011;16778;48.154;15.094;2023-03-14T11:41:45;0.40;;;0.40;;
8161;SDS011;16778;48.154;15.094;2023-03-14T11:44:19;5.00;;;0.47;;
8161;SDS011;16778;48.154;15.094;2023-03-14T11:52:39;2.53;;;0.70;;
8161;SDS011;16778;48.154;15.094;2023-03-14T11:55:12;2.30;;;0.60;;
8161;SDS011;16778;48.154;15.094;2023-03-14T11:57:47;0.70;;;0.40;;
8161;SDS011;16778;48.154;15.094;2023-03-14T12:05:33;0.20;;;0.20;;
8161;SDS011;16778;48.154;15.094;2023-03-14T12:10:51;0.50;;;0.50;;
8161;SDS011;16778;48.154;15.094;2023-03-14T12:13:19;1.53;;;0.53;;
8161;SDS011;16778;48.154;15.094;2023-03-14T12:15:49;0.17;;;0.17;;
8161;SDS011;16778;48.154;15.094;2023-03-14T12:18:30;0.30;;;0.30;;
8161;SDS011;16778;48.154;15.094;2023-03-14T12:20:58;0.60;;;0.30;;
8161;SDS011;16778;48.154;15.094;2023-03-14T12:23:26;0.20;;;0.20;;
8161;SDS011;16778;48.154;15.094;2023-03-14T12:28:36;1.17;;;0.50;;
8161;SDS011;16778;48.154;15.094;2023-03-14T12:44:45;0.57;;;0.50;;
8161;SDS011;16778;48.154;15.094;2023-03-14T12:48:00;1.23;;;0.50;;
8161;SDS011;16778;48.154;15.094;2023-03-14T12:50:07;0.60;;;0.20;;
8161;SDS011;16778;48.154;15.094;2023-03-14T13:01:15;0.30;;;0.30;;
8161;SDS011;16778;48.154;15.094;2023-03-14T13:03:47;0.33;;;0.30;;
8161;SDS011;16778;48.154;15.094;2023-03-14T13:12:14;1.00;;;0.37;;
8161;SDS011;16778;48.154;15.094;2023-03-14T13:14:48;0.20;;;0.20;;
8161;SDS011;16778;48.154;15.094;2023-03-14T13:17:19;0.83;;;0.50;;
8161;SDS011;16778;48.154;15.094;2023-03-14T13:19:53;0.73;;;0.50;;
8161;SDS011;16778;48.154;15.094;2023-03-14T13:22:24;0.43;;;0.40;;
8161;SDS011;16778;48.154;15.094;2023-03-14T13:24:58;0.53;;;0.30;;
8161;SDS011;16778;48.154;15.094;2023-03-14T13:27:25;0.30;;;0.30;;
8161;SDS011;16778;48.154;15.094;2023-03-14T13:29:51;0.60;;;0.50;;
8161;SDS011;16778;48.154;15.094;2023-03-14T13:32:21;0.77;;;0.40;;
8161;SDS011;16778;48.154;15.094;2023-03-14T13:34:51;0.70;;;0.40;;
8161;SDS011;16778;48.154;15.094;2023-03-14T13:37:20;0.20;;;0.20;;
8161;SDS011;16778;48.154;15.094;2023-03-14T13:39:50;1.03;;;0.43;;
8161;SDS011;16778;48.154;15.094;2023-03-14T13:42:20;1.33;;;0.40;;
8161;SDS011;16778;48.154;15.094;2023-03-14T13:44:49;0.83;;;0.47;;
8161;SDS011;16778;48.154;15.094;2023-03-14T13:47:18;0.20;;;0.20;;
8161;SDS011;16778;48.154;15.094;2023-03-14T13:49:45;0.50;;;0.50;;
8161;SDS011;16778;48.154;15.094;2023-03-14T13:55:13;0.40;;;0.40;;
8161;SDS011;16778;48.154;15.094;2023-03-14T13:57:45;0.60;;;0.43;;
8161;SDS011;16778;48.154;15.094;2023-03-14T14:00:17;0.60;;;0.30;;
8161;SDS011;16778;48.154;15.094;2023-03-14T14:02:44;0.97;;;0.50;;
8161;SDS011;16778;48.154;15.094;2023-03-14T14:05:10;0.23;;;0.23;;
8161;SDS011;16778;48.154;15.094;2023-03-14T14:07:36;0.33;;;0.33;;
8161;SDS011;16778;48.154;15.094;2023-03-14T14:10:03;0.53;;;0.30;;
8161;SDS011;16778;48.154;15.094;2023-03-14T14:15:21;0.43;;;0.40;;
8161;SDS011;16778;48.154;15.094;2023-03-14T14:17:52;0.87;;;0.40;;
8161;SDS011;16778;48.154;15.094;2023-03-14T14:22:59;0.40;;;0.40;;
8161;SDS011;16778;48.154;15.094;2023-03-14T14:25:28;1.00;;;0.40;;
8161;SDS011;16778;48.154;15.094;2023-03-14T14:27:53;0.73;;;0.50;;
8161;SDS011;16778;48.154;15.094;2023-03-14T14:32:49;1.30;;;0.33;;
8161;SDS011;16778;48.154;15.094;2023-03-14T14:35:31;0.40;;;0.37;;
8161;SDS011;16778;48.154;15.094;2023-03-14T14:37:58;0.50;;;0.40;;
8161;SDS011;16778;48.154;15.094;2023-03-14T14:40:28;0.60;;;0.40;;
8161;SDS011;16778;48.154;15.094;2023-03-14T14:42:55;0.53;;;0.40;;
8161;SDS011;16778;48.154;15.094;2023-03-14T14:45:27;1.13;;;0.60;;
8161;SDS011;16778;48.154;15.094;2023-03-14T14:50:34;0.57;;;0.47;;
8161;SDS011;16778;48.154;15.094;2023-03-14T14:53:19;0.93;;;0.50;;
8161;SDS011;16778;48.154;15.094;2023-03-14T14:55:45;0.23;;;0.23;;
8161;SDS011;16778;48.154;15.094;2023-03-14T14:58:18;1.43;;;0.20;;
8161;SDS011;16778;48.154;15.094;2023-03-14T15:00:57;0.20;;;0.10;;
8161;SDS011;16778;48.154;15.094;2023-03-14T15:03:28;0.17;;;0.10;;
8161;SDS011;16778;48.154;15.094;2023-03-14T15:05:55;0.30;;;0.30;;
8161;SDS011;16778;48.154;15.094;2023-03-14T15:08:21;0.90;;;0.33;;
8161;SDS011;16778;48.154;15.094;2023-03-14T15:10:46;0.33;;;0.23;;
8161;SDS011;16778;48.154;15.094;2023-03-14T15:13:12;3.20;;;0.33;;
8161;SDS011;16778;48.154;15.094;2023-03-14T15:15:38;1.10;;;0.30;;
8161;SDS011;16778;48.154;15.094;2023-03-14T15:18:37;2.10;;;0.50;;
8161;SDS011;16778;48.154;15.094;2023-03-14T15:20:55;2.20;;;0.40;;
8161;SDS011;16778;48.154;15.094;2023-03-14T15:23:21;1.87;;;0.80;;
8161;SDS011;16778;48.154;15.094;2023-03-14T15:25:47;3.03;;;1.03;;
8161;SDS011;16778;48.154;15.094;2023-03-14T15:28:17;3.83;;;0.80;;
8161;SDS011;16778;48.154;15.094;2023-03-14T15:30:52;0.90;;;0.50;;
8161;SDS011;16778;48.154;15.094;2023-03-14T15:33:19;0.97;;;0.50;;
8161;SDS011;16778;48.154;15.094;2023-03-14T15:35:45;0.93;;;0.50;;
8161;SDS011;16778;48.154;15.094;2023-03-14T15:38:13;1.33;;;0.40;;
8161;SDS011;16778;48.154;15.094;2023-03-14T15:40:40;1.37;;;0.50;;
8161;SDS011;16778;48.154;15.094;2023-03-14T15:43:06;0.60;;;0.37;;
8161;SDS011;16778;48.154;15.094;2023-03-14T15:45:32;1.33;;;0.70;;
8161;SDS011;16778;48.154;15.094;2023-03-14T15:47:58;0.40;;;0.30;;
8161;SDS011;16778;48.154;15.094;2023-03-14T15:50:24;2.07;;;0.83;;
8161;SDS011;16778;48.154;15.094;2023-03-14T15:52:50;0.43;;;0.40;;
8161;SDS011;16778;48.154;15.094;2023-03-14T15:55:16;0.47;;;0.30;;
8161;SDS011;16778;48.154;15.094;2023-03-14T15:57:45;0.40;;;0.40;;
8161;SDS011;16778;48.154;15.094;2023-03-14T16:00:15;0.53;;;0.30;;
8161;SDS011;16778;48.154;15.094;2023-03-14T16:02:46;0.40;;;0.20;;
8161;SDS011;16778;48.154;15.094;2023-03-14T16:05:13;0.57;;;0.40;;
8161;SDS011;16778;48.154;15.094;2023-03-14T16:07:39;0.30;;;0.23;;
8161;SDS011;16778;48.154;15.094;2023-03-14T16:10:05;1.17;;;0.40;;
8161;SDS011;16778;48.154;15.094;2023-03-14T16:12:32;0.30;;;0.20;;
8161;SDS011;16778;48.154;15.094;2023-03-14T16:14:58;1.17;;;0.40;;
8161;SDS011;16778;48.154;15.094;2023-03-14T16:17:24;1.40;;;0.77;;
8161;SDS011;16778;48.154;15.094;2023-03-14T16:19:50;7.27;;;0.80;;
8161;SDS011;16778;48.154;15.094;2023-03-14T16:22:15;2.37;;;0.90;;
8161;SDS011;16778;48.154;15.094;2023-03-14T16:24:41;0.73;;;0.60;;
8161;SDS011;16778;48.154;15.094;2023-03-14T16:27:07;0.77;;;0.40;;
8161;SDS011;16778;48.154;15.094;2023-03-14T16:29:32;4.57;;;0.57;;
8161;SDS011;16778;48.154;15.094;2023-03-14T16:31:58;5.27;;;0.60;;
8161;SDS011;16778;48.154;15.094;2023-03-14T16:34:24;0.97;;;0.60;;
8161;SDS011;16778;48.154;15.094;2023-03-14T16:36:49;1.27;;;0.67;;
8161;SDS011;16778;48.154;15.094;2023-03-14T16:39:16;1.47;;;0.83;;